sensor_id;sensor_type;location;lat;lon;timestamp;pressure;altitude;pressure_sealevel;temperature;humidity
21109;BME280;10712;52.944;9.098;2024-03-02T00:00:49;100255.81;;;15.14;69.10
21109;BME280;10712;52.944;9.098;2024-03-02T00:03:15;100260.44;;;15.12;69.14
21109;BME280;10712;52.944;9.098;2024-03-02T00:05:41;100254.34;;;15.10;69.21
21109;BME280;10712;52.944;9.098;2024-03-02T00:08:07;100256.28;;;15.08;69.12
21109;BME280;10712;52.944;9.098;2024-03-02T00:10:38;100246.81;;;15.04;69.06
21109;BME280;10712;52.944;9.098;2024-03-02T00:13:07;100252.44;;;15.01;68.75
21109;BME280;10712;52.944;9.098;2024-03-02T00:15:48;100257.34;;;14.95;69.08
21109;BME280;10712;52.944;9.098;2024-03-02T00:18:35;100251.41;;;14.92;69.23
21109;BME280;10712;52.944;9.098;2024-03-02T00:21:02;100251.63;;;14.89;69.06
21109;BME280;10712;52.944;9.098;2024-03-02T00:23:33;100254.72;;;14.84;69.02
21109;BME280;10712;52.944;9.098;2024-03-02T00:25:59;100253.25;;;14.80;69.11
21109;BME280;10712;52.944;9.098;2024-03-02T00:28:33;100246.47;;;14.76;69.02
21109;BME280;10712;52.944;9.098;2024-03-02T00:31:10;100252.34;;;14.70;69.18
21109;BME280;10712;52.944;9.098;2024-03-02T00:33:45;100251.03;;;14.65;69.12
21109;BME280;10712;52.944;9.098;2024-03-02T00:36:13;100249.44;;;14.62;69.04
21109;BME280;10712;52.944;9.098;2024-03-02T00:38:49;100248.00;;;14.58;69.15
21109;BME280;10712;52.944;9.098;2024-03-02T00:41:23;100246.53;;;14.54;69.02
21109;BME280;10712;52.944;9.098;2024-03-02T00:44:02;100248.50;;;14.52;69.21
21109;BME280;10712;52.944;9.098;2024-03-02T00:46:41;100254.34;;;14.46;69.10
21109;BME280;10712;52.944;9.098;2024-03-02T00:49:23;100248.41;;;14.42;69.05
21109;BME280;10712;52.944;9.098;2024-03-02T00:51:52;100253.38;;;14.36;69.21
21109;BME280;10712;52.944;9.098;2024-03-02T00:54:24;100253.16;;;14.39;69.35
21109;BME280;10712;52.944;9.098;2024-03-02T00:56:53;100249.00;;;14.35;69.23
21109;BME280;10712;52.944;9.098;2024-03-02T00:59:22;100249.97;;;14.34;69.10
21109;BME280;10712;52.944;9.098;2024-03-02T01:01:48;100248.03;;;14.36;69.28
21109;BME280;10712;52.944;9.098;2024-03-02T01:04:15;100243.63;;;14.35;69.21
21109;BME280;10712;52.944;9.098;2024-03-02T01:06:44;100251.47;;;14.38;69.18
21109;BME280;10712;52.944;9.098;2024-03-02T01:09:11;100245.00;;;14.40;69.27
21109;BME280;10712;52.944;9.098;2024-03-02T01:11:38;100244.13;;;14.40;69.51
21109;BME280;10712;52.944;9.098;2024-03-02T01:14:04;100243.03;;;14.42;69.34
21109;BME280;10712;52.944;9.098;2024-03-02T01:16:30;100237.91;;;14.39;69.56
21109;BME280;10712;52.944;9.098;2024-03-02T01:18:56;100237.31;;;14.36;69.61
21109;BME280;10712;52.944;9.098;2024-03-02T01:21:22;100235.59;;;14.35;69.61
21109;BME280;10712;52.944;9.098;2024-03-02T01:23:48;100226.81;;;14.33;69.45
21109;BME280;10712;52.944;9.098;2024-03-02T01:26:14;100221.00;;;14.28;69.50
21109;BME280;10712;52.944;9.098;2024-03-02T01:28:40;100229.03;;;14.28;69.61
21109;BME280;10712;52.944;9.098;2024-03-02T01:31:06;100221.47;;;14.33;69.63
21109;BME280;10712;52.944;9.098;2024-03-02T01:33:32;100225.72;;;14.35;69.54
21109;BME280;10712;52.944;9.098;2024-03-02T01:35:57;100227.34;;;14.38;69.60
21109;BME280;10712;52.944;9.098;2024-03-02T01:38:23;100219.03;;;14.41;69.59
21109;BME280;10712;52.944;9.098;2024-03-02T01:40:49;100221.22;;;14.47;69.64
21109;BME280;10712;52.944;9.098;2024-03-02T01:43:15;100221.72;;;14.52;69.71
21109;BME280;10712;52.944;9.098;2024-03-02T01:45:41;100220.47;;;14.56;69.46
21109;BME280;10712;52.944;9.098;2024-03-02T01:48:07;100222.41;;;14.54;69.61
21109;BME280;10712;52.944;9.098;2024-03-02T01:50:34;100219.03;;;14.52;69.72
21109;BME280;10712;52.944;9.098;2024-03-02T01:53:01;100216.34;;;14.52;69.81
21109;BME280;10712;52.944;9.098;2024-03-02T01:55:28;100211.97;;;14.51;69.64
21109;BME280;10712;52.944;9.098;2024-03-02T01:57:58;100209.41;;;14.49;69.70
21109;BME280;10712;52.944;9.098;2024-03-02T02:00:24;100211.00;;;14.52;69.69
21109;BME280;10712;52.944;9.098;2024-03-02T02:02:51;100203.91;;;14.51;69.71
21109;BME280;10712;52.944;9.098;2024-03-02T02:05:18;100200.25;;;14.52;69.57
21109;BME280;10712;52.944;9.098;2024-03-02T02:07:44;100204.50;;;14.54;69.44
21109;BME280;10712;52.944;9.098;2024-03-02T02:10:10;100199.13;;;14.54;69.67
21109;BME280;10712;52.944;9.098;2024-03-02T02:12:37;100197.06;;;14.58;69.66
21109;BME280;10712;52.944;9.098;2024-03-02T02:15:07;100198.91;;;14.57;69.55
21109;BME280;10712;52.944;9.098;2024-03-02T02:17:46;100189.88;;;14.58;69.51
21109;BME280;10712;52.944;9.098;2024-03-02T02:20:12;100183.66;;;14.58;69.61
21109;BME280;10712;52.944;9.098;2024-03-02T02:22:38;100184.75;;;14.55;69.64
21109;BME280;10712;52.944;9.098;2024-03-02T02:25:04;100185.84;;;14.53;69.55
21109;BME280;10712;52.944;9.098;2024-03-02T02:27:30;100179.28;;;14.57;69.56
21109;BME280;10712;52.944;9.098;2024-03-02T02:29:56;100183.78;;;14.56;69.44
21109;BME280;10712;52.944;9.098;2024-03-02T02:32:22;100171.25;;;14.57;69.53
21109;BME280;10712;52.944;9.098;2024-03-02T02:34:52;100177.69;;;14.54;69.44
21109;BME280;10712;52.944;9.098;2024-03-02T02:37:18;100165.88;;;14.57;69.60
21109;BME280;10712;52.944;9.098;2024-03-02T02:39:44;100170.50;;;14.55;69.47
21109;BME280;10712;52.944;9.098;2024-03-02T02:42:12;100173.78;;;14.58;69.21
21109;BME280;10712;52.944;9.098;2024-03-02T02:44:38;100171.94;;;14.59;69.35
21109;BME280;10712;52.944;9.098;2024-03-02T02:47:03;100170.72;;;14.63;69.22
21109;BME280;10712;52.944;9.098;2024-03-02T02:49:29;100174.03;;;14.55;69.40
21109;BME280;10712;52.944;9.098;2024-03-02T02:51:56;100180.03;;;14.48;69.48
21109;BME280;10712;52.944;9.098;2024-03-02T02:54:22;100175.06;;;14.43;69.53
21109;BME280;10712;52.944;9.098;2024-03-02T02:56:48;100173.75;;;14.38;69.53
21109;BME280;10712;52.944;9.098;2024-03-02T02:59:14;100171.09;;;14.38;69.67
21109;BME280;10712;52.944;9.098;2024-03-02T03:01:40;100168.59;;;14.35;69.45
21109;BME280;10712;52.944;9.098;2024-03-02T03:04:05;100170.72;;;14.31;69.60
21109;BME280;10712;52.944;9.098;2024-03-02T03:06:31;100159.13;;;14.31;69.66
21109;BME280;10712;52.944;9.098;2024-03-02T03:08:57;100160.81;;;14.32;69.67
21109;BME280;10712;52.944;9.098;2024-03-02T03:11:23;100161.44;;;14.35;69.45
21109;BME280;10712;52.944;9.098;2024-03-02T03:13:50;100157.03;;;14.34;69.48
21109;BME280;10712;52.944;9.098;2024-03-02T03:16:16;100158.63;;;14.37;69.64
21109;BME280;10712;52.944;9.098;2024-03-02T03:18:41;100159.59;;;14.36;69.68
21109;BME280;10712;52.944;9.098;2024-03-02T03:21:07;100154.72;;;14.41;69.50
21109;BME280;10712;52.944;9.098;2024-03-02T03:23:33;100156.91;;;14.36;69.64
21109;BME280;10712;52.944;9.098;2024-03-02T03:25:59;100156.44;;;14.42;69.45
21109;BME280;10712;52.944;9.098;2024-03-02T03:28:24;100156.69;;;14.39;69.61
21109;BME280;10712;52.944;9.098;2024-03-02T03:30:50;100151.44;;;14.37;69.67
21109;BME280;10712;52.944;9.098;2024-03-02T03:33:16;100148.88;;;14.36;69.77
21109;BME280;10712;52.944;9.098;2024-03-02T03:35:42;100148.75;;;14.37;69.54
21109;BME280;10712;52.944;9.098;2024-03-02T03:38:07;100146.16;;;14.47;69.31
21109;BME280;10712;52.944;9.098;2024-03-02T03:40:33;100153.03;;;14.40;69.46
21109;BME280;10712;52.944;9.098;2024-03-02T03:42:59;100155.94;;;14.37;69.76
21109;BME280;10712;52.944;9.098;2024-03-02T03:45:25;100147.91;;;14.37;69.63
21109;BME280;10712;52.944;9.098;2024-03-02T03:47:53;100152.31;;;14.38;69.61
21109;BME280;10712;52.944;9.098;2024-03-02T03:50:19;100156.19;;;14.34;69.63
21109;BME280;10712;52.944;9.098;2024-03-02T03:52:45;100153.50;;;14.34;69.54
21109;BME280;10712;52.944;9.098;2024-03-02T03:55:11;100154.47;;;14.33;69.52
21109;BME280;10712;52.944;9.098;2024-03-02T03:57:36;100157.44;;;14.30;69.53
21109;BME280;10712;52.944;9.098;2024-03-02T04:00:03;100154.34;;;14.34;69.44
21109;BME280;10712;52.944;9.098;2024-03-02T04:02:38;100153.91;;;14.29;69.58
21109;BME280;10712;52.944;9.098;2024-03-02T04:05:04;100158.28;;;14.30;69.42
21109;BME280;10712;52.944;9.098;2024-03-02T04:07:36;100155.94;;;14.37;69.34
21109;BME280;10712;52.944;9.098;2024-03-02T04:10:10;100155.22;;;14.35;69.28
21109;BME280;10712;52.944;9.098;2024-03-02T04:12:39;100155.00;;;14.38;69.28
21109;BME280;10712;52.944;9.098;2024-03-02T04:15:06;100153.50;;;14.34;69.26
21109;BME280;10712;52.944;9.098;2024-03-02T04:17:33;100154.72;;;14.41;69.31
21109;BME280;10712;52.944;9.098;2024-03-02T04:19:59;100148.75;;;14.37;69.15
21109;BME280;10712;52.944;9.098;2024-03-02T04:22:27;100150.81;;;14.34;69.37
21109;BME280;10712;52.944;9.098;2024-03-02T04:24:53;100153.25;;;14.37;69.27
21109;BME280;10712;52.944;9.098;2024-03-02T04:27:19;100144.34;;;14.47;69.02
21109;BME280;10712;52.944;9.098;2024-03-02T04:29:45;100147.66;;;14.40;69.26
21109;BME280;10712;52.944;9.098;2024-03-02T04:32:11;100155.22;;;14.35;69.21
21109;BME280;10712;52.944;9.098;2024-03-02T04:34:37;100149.66;;;14.38;69.25
21109;BME280;10712;52.944;9.098;2024-03-02T04:37:02;100148.75;;;14.37;69.30
21109;BME280;10712;52.944;9.098;2024-03-02T04:39:28;100138.66;;;14.41;69.35
21109;BME280;10712;52.944;9.098;2024-03-02T04:41:54;100143.75;;;14.44;69.34
21109;BME280;10712;52.944;9.098;2024-03-02T04:44:20;100142.06;;;14.43;69.28
21109;BME280;10712;52.944;9.098;2024-03-02T04:46:45;100134.75;;;14.45;69.23
21109;BME280;10712;52.944;9.098;2024-03-02T04:49:11;100126.66;;;14.56;68.81
21109;BME280;10712;52.944;9.098;2024-03-02T04:51:37;100133.09;;;14.53;69.02
21109;BME280;10712;52.944;9.098;2024-03-02T04:54:03;100132.06;;;14.45;69.15
21109;BME280;10712;52.944;9.098;2024-03-02T04:56:28;100147.91;;;14.37;69.41
21109;BME280;10712;52.944;9.098;2024-03-02T04:58:57;100162.78;;;14.30;69.39
21109;BME280;10712;52.944;9.098;2024-03-02T05:01:23;100162.56;;;14.22;69.40
21109;BME280;10712;52.944;9.098;2024-03-02T05:03:49;100165.03;;;14.13;69.34
21109;BME280;10712;52.944;9.098;2024-03-02T05:06:14;100166.25;;;14.09;69.44
21109;BME280;10712;52.944;9.098;2024-03-02T05:08:40;100161.41;;;14.03;69.62
21109;BME280;10712;52.944;9.098;2024-03-02T05:11:06;100167.75;;;14.02;69.53
21109;BME280;10712;52.944;9.098;2024-03-02T05:13:50;100168.84;;;14.00;69.55
21109;BME280;10712;52.944;9.098;2024-03-02T05:16:16;100167.84;;;14.01;69.66
21109;BME280;10712;52.944;9.098;2024-03-02T05:18:42;100167.00;;;14.00;69.63
21109;BME280;10712;52.944;9.098;2024-03-02T05:21:07;100166.50;;;14.06;69.45
21109;BME280;10712;52.944;9.098;2024-03-02T05:23:33;100167.00;;;14.00;69.79
21109;BME280;10712;52.944;9.098;2024-03-02T05:25:59;100168.94;;;13.98;69.81
21109;BME280;10712;52.944;9.098;2024-03-02T05:28:25;100167.97;;;13.99;69.84
21109;BME280;10712;52.944;9.098;2024-03-02T05:30:51;100170.66;;;13.99;69.87
21109;BME280;10712;52.944;9.098;2024-03-02T05:33:17;100176.88;;;14.00;69.94
21109;BME280;10712;52.944;9.098;2024-03-02T05:35:44;100180.78;;;13.96;70.00
21109;BME280;10712;52.944;9.098;2024-03-02T05:38:10;100182.47;;;13.97;69.90
21109;BME280;10712;52.944;9.098;2024-03-02T05:40:35;100180.91;;;13.94;70.05
21109;BME280;10712;52.944;9.098;2024-03-02T05:43:01;100182.09;;;13.90;70.03
21109;BME280;10712;52.944;9.098;2024-03-02T05:45:27;100184.06;;;13.88;69.98
21109;BME280;10712;52.944;9.098;2024-03-02T05:47:52;100185.28;;;13.84;69.99
21109;BME280;10712;52.944;9.098;2024-03-02T05:50:18;100181.63;;;13.85;69.87
21109;BME280;10712;52.944;9.098;2024-03-02T05:52:45;100189.66;;;13.85;69.90
21109;BME280;10712;52.944;9.098;2024-03-02T05:55:11;100187.72;;;13.87;69.81
21109;BME280;10712;52.944;9.098;2024-03-02T05:57:37;100188.69;;;13.86;70.03
21109;BME280;10712;52.944;9.098;2024-03-02T06:00:09;100191.59;;;13.83;70.00
21109;BME280;10712;52.944;9.098;2024-03-02T06:02:41;100194.44;;;13.82;69.81
21109;BME280;10712;52.944;9.098;2024-03-02T06:05:07;100193.81;;;13.78;70.03
21109;BME280;10712;52.944;9.098;2024-03-02T06:07:33;100199.16;;;13.78;69.96
21109;BME280;10712;52.944;9.098;2024-03-02T06:09:59;100199.44;;;13.75;69.93
21109;BME280;10712;52.944;9.098;2024-03-02T06:12:24;100201.38;;;13.73;69.81
21109;BME280;10712;52.944;9.098;2024-03-02T06:14:50;100197.94;;;13.71;69.89
21109;BME280;10712;52.944;9.098;2024-03-02T06:17:16;100206.94;;;13.70;69.89
21109;BME280;10712;52.944;9.098;2024-03-02T06:19:42;100199.06;;;13.68;70.14
21109;BME280;10712;52.944;9.098;2024-03-02T06:22:08;100205.28;;;13.69;69.95
21109;BME280;10712;52.944;9.098;2024-03-02T06:24:36;100206.34;;;13.66;70.12
21109;BME280;10712;52.944;9.098;2024-03-02T06:27:03;100206.34;;;13.66;70.10
21109;BME280;10712;52.944;9.098;2024-03-02T06:29:32;100207.94;;;13.69;70.11
21109;BME280;10712;52.944;9.098;2024-03-02T06:31:58;100210.38;;;13.72;70.08
21109;BME280;10712;52.944;9.098;2024-03-02T06:34:24;100221.34;;;13.69;70.08
21109;BME280;10712;52.944;9.098;2024-03-02T06:36:49;100217.44;;;13.73;70.15
21109;BME280;10712;52.944;9.098;2024-03-02T06:39:15;100218.88;;;13.77;70.21
21109;BME280;10712;52.944;9.098;2024-03-02T06:41:41;100215.13;;;13.79;70.23
21109;BME280;10712;52.944;9.098;2024-03-02T06:44:08;100213.03;;;13.83;70.17
21109;BME280;10712;52.944;9.098;2024-03-02T06:46:34;100212.78;;;13.86;70.32
21109;BME280;10712;52.944;9.098;2024-03-02T06:48:59;100222.25;;;13.90;70.28
21109;BME280;10712;52.944;9.098;2024-03-02T06:51:28;100226.41;;;13.94;70.38
21109;BME280;10712;52.944;9.098;2024-03-02T06:53:53;100229.56;;;13.99;70.38
21109;BME280;10712;52.944;9.098;2024-03-02T06:56:19;100232.13;;;14.01;70.37
21109;BME280;10712;52.944;9.098;2024-03-02T06:58:45;100232.38;;;14.09;70.39
21109;BME280;10712;52.944;9.098;2024-03-02T07:01:10;100224.41;;;14.18;70.27
21109;BME280;10712;52.944;9.098;2024-03-02T07:03:36;100229.78;;;14.18;70.58
21109;BME280;10712;52.944;9.098;2024-03-02T07:06:03;100229.53;;;14.22;70.58
21109;BME280;10712;52.944;9.098;2024-03-02T07:08:28;100233.19;;;14.20;70.57
21109;BME280;10712;52.944;9.098;2024-03-02T07:10:54;100232.09;;;14.23;70.66
21109;BME280;10712;52.944;9.098;2024-03-02T07:13:20;100234.63;;;14.25;70.85
21109;BME280;10712;52.944;9.098;2024-03-02T07:15:46;100237.81;;;14.30;70.62
21109;BME280;10712;52.944;9.098;2024-03-02T07:18:32;100235.59;;;14.35;70.70
21109;BME280;10712;52.944;9.098;2024-03-02T07:21:09;100235.13;;;14.41;70.60
21109;BME280;10712;52.944;9.098;2024-03-02T07:23:35;100240.25;;;14.44;70.61
21109;BME280;10712;52.944;9.098;2024-03-02T07:26:01;100237.41;;;14.45;70.75
21109;BME280;10712;52.944;9.098;2024-03-02T07:28:27;100242.88;;;14.55;70.75
21109;BME280;10712;52.944;9.098;2024-03-02T07:31:04;100246.19;;;14.58;70.80
21109;BME280;10712;52.944;9.098;2024-03-02T07:33:30;100247.50;;;14.64;70.87
21109;BME280;10712;52.944;9.098;2024-03-02T07:35:58;100245.38;;;14.68;70.72
21109;BME280;10712;52.944;9.098;2024-03-02T07:38:28;100251.09;;;14.74;70.80
21109;BME280;10712;52.944;9.098;2024-03-02T07:40:54;100254.09;;;14.81;70.84
21109;BME280;10712;52.944;9.098;2024-03-02T07:43:21;100249.34;;;14.84;70.88
21109;BME280;10712;52.944;9.098;2024-03-02T07:45:47;100246.88;;;14.92;70.78
21109;BME280;10712;52.944;9.098;2024-03-02T07:48:14;100246.38;;;14.98;70.95
21109;BME280;10712;52.944;9.098;2024-03-02T07:50:40;100247.28;;;15.09;70.92
21109;BME280;10712;52.944;9.098;2024-03-02T07:53:07;100250.44;;;15.14;70.95
21109;BME280;10712;52.944;9.098;2024-03-02T07:55:34;100254.56;;;15.18;71.14
21109;BME280;10712;52.944;9.098;2024-03-02T07:58:02;100253.78;;;15.27;70.99
21109;BME280;10712;52.944;9.098;2024-03-02T08:00:28;100251.28;;;15.35;71.00
21109;BME280;10712;52.944;9.098;2024-03-02T08:02:55;100260.47;;;15.42;70.79
21109;BME280;10712;52.944;9.098;2024-03-02T08:05:21;100258.97;;;15.49;70.64
21109;BME280;10712;52.944;9.098;2024-03-02T08:07:48;100258.72;;;15.52;70.56
21109;BME280;10712;52.944;9.098;2024-03-02T08:10:14;100258.34;;;15.57;70.63
21109;BME280;10712;52.944;9.098;2024-03-02T08:12:40;100250.22;;;15.68;70.36
21109;BME280;10712;52.944;9.098;2024-03-02T08:15:06;100263.53;;;15.69;70.29
21109;BME280;10712;52.944;9.098;2024-03-02T08:17:32;100263.00;;;15.75;70.25
21109;BME280;10712;52.944;9.098;2024-03-02T08:19:58;100257.06;;;15.82;70.16
21109;BME280;10712;52.944;9.098;2024-03-02T08:22:24;100267.81;;;15.82;70.13
21109;BME280;10712;52.944;9.098;2024-03-02T08:24:54;100267.41;;;15.86;69.94
21109;BME280;10712;52.944;9.098;2024-03-02T08:27:20;100272.66;;;15.88;70.07
21109;BME280;10712;52.944;9.098;2024-03-02T08:29:46;100270.94;;;15.87;69.96
21109;BME280;10712;52.944;9.098;2024-03-02T08:32:11;100272.66;;;15.88;69.96
21109;BME280;10712;52.944;9.098;2024-03-02T08:34:37;100270.16;;;15.96;69.83
21109;BME280;10712;52.944;9.098;2024-03-02T08:37:03;100268.16;;;15.98;69.88
21109;BME280;10712;52.944;9.098;2024-03-02T08:39:29;100275.22;;;15.99;69.71
21109;BME280;10712;52.944;9.098;2024-03-02T08:41:55;100276.38;;;16.06;69.61
21109;BME280;10712;52.944;9.098;2024-03-02T08:44:21;100278.53;;;16.12;69.43
21109;BME280;10712;52.944;9.098;2024-03-02T08:46:47;100288.59;;;16.10;69.58
21109;BME280;10712;52.944;9.098;2024-03-02T08:49:13;100281.22;;;16.12;69.44
21109;BME280;10712;52.944;9.098;2024-03-02T08:51:39;100277.84;;;16.10;69.43
21109;BME280;10712;52.944;9.098;2024-03-02T08:54:05;100280.38;;;16.11;69.38
21109;BME280;10712;52.944;9.098;2024-03-02T08:56:31;100275.84;;;16.12;69.42
21109;BME280;10712;52.944;9.098;2024-03-02T08:58:57;100278.41;;;16.13;69.42
21109;BME280;10712;52.944;9.098;2024-03-02T09:01:23;100282.94;;;16.13;69.37
21109;BME280;10712;52.944;9.098;2024-03-02T09:03:49;100287.75;;;16.19;69.37
21109;BME280;10712;52.944;9.098;2024-03-02T09:06:15;100287.50;;;16.22;69.51
21109;BME280;10712;52.944;9.098;2024-03-02T09:08:45;100286.94;;;16.28;69.30
21109;BME280;10712;52.944;9.098;2024-03-02T09:11:11;100298.28;;;16.32;69.19
21109;BME280;10712;52.944;9.098;2024-03-02T09:13:38;100302.81;;;16.31;69.38
21109;BME280;10712;52.944;9.098;2024-03-02T09:16:04;100306.47;;;16.30;69.37
21109;BME280;10712;52.944;9.098;2024-03-02T09:18:31;100307.91;;;16.34;69.22
21109;BME280;10712;52.944;9.098;2024-03-02T09:20:57;100302.25;;;16.37;69.34
21109;BME280;10712;52.944;9.098;2024-03-02T09:23:22;100305.38;;;16.42;69.32
21109;BME280;10712;52.944;9.098;2024-03-02T09:25:48;100310.19;;;16.48;69.28
21109;BME280;10712;52.944;9.098;2024-03-02T09:28:15;100309.09;;;16.51;69.21
21109;BME280;10712;52.944;9.098;2024-03-02T09:30:41;100307.81;;;16.55;69.27
21109;BME280;10712;52.944;9.098;2024-03-02T09:33:07;100310.56;;;16.65;69.18
21109;BME280;10712;52.944;9.098;2024-03-02T09:35:33;100308.31;;;16.70;69.21
21109;BME280;10712;52.944;9.098;2024-03-02T09:37:58;100298.56;;;16.78;69.16
21109;BME280;10712;52.944;9.098;2024-03-02T09:40:24;100293.31;;;16.86;68.98
21109;BME280;10712;52.944;9.098;2024-03-02T09:42:51;100297.00;;;16.95;68.80
21109;BME280;10712;52.944;9.098;2024-03-02T09:45:26;100307.50;;;17.08;68.51
21109;BME280;10712;52.944;9.098;2024-03-02T09:47:52;100304.22;;;17.23;68.24
21109;BME280;10712;52.944;9.098;2024-03-02T09:50:18;100310.31;;;17.25;68.09
21109;BME280;10712;52.944;9.098;2024-03-02T09:52:48;100311.44;;;17.32;68.05
21109;BME280;10712;52.944;9.098;2024-03-02T09:55:15;100314.53;;;17.57;67.68
21109;BME280;10712;52.944;9.098;2024-03-02T09:57:41;100307.59;;;17.64;67.42
21109;BME280;10712;52.944;9.098;2024-03-02T10:00:10;100307.44;;;17.75;67.33
21109;BME280;10712;52.944;9.098;2024-03-02T10:02:41;100315.47;;;17.94;66.86
21109;BME280;10712;52.944;9.098;2024-03-02T10:05:09;100318.69;;;18.07;66.10
21109;BME280;10712;52.944;9.098;2024-03-02T10:07:34;100313.41;;;18.16;66.30
21109;BME280;10712;52.944;9.098;2024-03-02T10:10:14;100312.09;;;18.20;66.22
21109;BME280;10712;52.944;9.098;2024-03-02T10:12:40;100318.84;;;18.33;66.05
21109;BME280;10712;52.944;9.098;2024-03-02T10:15:06;100309.72;;;18.44;65.78
21109;BME280;10712;52.944;9.098;2024-03-02T10:17:33;100296.31;;;18.52;65.25
21109;BME280;10712;52.944;9.098;2024-03-02T10:19:59;100307.41;;;18.49;65.08
21109;BME280;10712;52.944;9.098;2024-03-02T10:22:24;100307.78;;;18.54;65.21
21109;BME280;10712;52.944;9.098;2024-03-02T10:24:52;100305.38;;;18.61;65.08
21109;BME280;10712;52.944;9.098;2024-03-02T10:27:27;100301.25;;;18.66;64.06
21109;BME280;10712;52.944;9.098;2024-03-02T10:29:54;100305.31;;;18.70;64.62
21109;BME280;10712;52.944;9.098;2024-03-02T10:32:22;100308.59;;;18.74;63.92
21109;BME280;10712;52.944;9.098;2024-03-02T10:34:50;100304.41;;;18.79;64.04
21109;BME280;10712;52.944;9.098;2024-03-02T10:37:16;100312.19;;;18.82;63.40
21109;BME280;10712;52.944;9.098;2024-03-02T10:39:43;100312.19;;;18.82;63.38
21109;BME280;10712;52.944;9.098;2024-03-02T10:42:09;100305.09;;;18.81;63.37
21109;BME280;10712;52.944;9.098;2024-03-02T10:44:35;100303.25;;;18.82;63.17
21109;BME280;10712;52.944;9.098;2024-03-02T10:47:03;100294.72;;;18.86;63.00
21109;BME280;10712;52.944;9.098;2024-03-02T10:49:31;100299.50;;;18.93;62.98
21109;BME280;10712;52.944;9.098;2024-03-02T10:52:01;100304.88;;;18.93;62.36
21109;BME280;10712;52.944;9.098;2024-03-02T10:54:27;100309.13;;;18.95;62.44
21109;BME280;10712;52.944;9.098;2024-03-02T10:56:59;100301.72;;;18.97;62.10
21109;BME280;10712;52.944;9.098;2024-03-02T10:59:33;100300.94;;;19.05;62.00
21109;BME280;10712;52.944;9.098;2024-03-02T11:02:01;100302.28;;;19.01;61.99
21109;BME280;10712;52.944;9.098;2024-03-02T11:04:29;100301.31;;;19.10;62.22
21109;BME280;10712;52.944;9.098;2024-03-02T11:07:07;100299.56;;;19.18;61.85
21109;BME280;10712;52.944;9.098;2024-03-02T11:09:35;100302.19;;;19.28;61.36
21109;BME280;10712;52.944;9.098;2024-03-02T11:12:36;100299.31;;;19.29;61.78
21109;BME280;10712;52.944;9.098;2024-03-02T11:15:10;100287.06;;;19.35;60.88
21109;BME280;10712;52.944;9.098;2024-03-02T11:17:41;100297.63;;;19.46;60.98
21109;BME280;10712;52.944;9.098;2024-03-02T11:20:09;100292.78;;;19.50;61.32
21109;BME280;10712;52.944;9.098;2024-03-02T11:22:36;100297.69;;;19.54;61.64
21109;BME280;10712;52.944;9.098;2024-03-02T11:25:02;100296.75;;;19.63;61.13
21109;BME280;10712;52.944;9.098;2024-03-02T11:33:07;100300.50;;;19.96;60.12
21109;BME280;10712;52.944;9.098;2024-03-02T11:35:43;100306.63;;;20.06;59.21
21109;BME280;10712;52.944;9.098;2024-03-02T11:38:12;100307.00;;;20.12;59.71
21109;BME280;10712;52.944;9.098;2024-03-02T11:40:40;100308.06;;;20.19;59.52
21109;BME280;10712;52.944;9.098;2024-03-02T11:43:07;100301.47;;;20.21;59.24
21109;BME280;10712;52.944;9.098;2024-03-02T11:45:36;100300.66;;;20.29;59.58
21109;BME280;10712;52.944;9.098;2024-03-02T11:48:06;100301.88;;;20.34;59.23
21109;BME280;10712;52.944;9.098;2024-03-02T11:50:49;100303.94;;;20.40;58.94
21109;BME280;10712;52.944;9.098;2024-03-02T11:53:15;100299.94;;;20.53;58.66
21109;BME280;10712;52.944;9.098;2024-03-02T11:55:41;100296.91;;;20.56;58.13
21109;BME280;10712;52.944;9.098;2024-03-02T11:58:13;100302.03;;;20.67;58.19
21109;BME280;10712;52.944;9.098;2024-03-02T12:00:39;100296.09;;;20.71;57.67
21109;BME280;10712;52.944;9.098;2024-03-02T12:03:07;100296.59;;;20.75;57.65
21109;BME280;10712;52.944;9.098;2024-03-02T12:05:35;100285.13;;;20.81;57.65
21109;BME280;10712;52.944;9.098;2024-03-02T12:08:04;100284.09;;;20.82;57.48
21109;BME280;10712;52.944;9.098;2024-03-02T12:10:31;100282.41;;;20.89;57.30
21109;BME280;10712;52.944;9.098;2024-03-02T12:13:05;100283.44;;;20.96;57.63
21109;BME280;10712;52.944;9.098;2024-03-02T12:15:38;100284.16;;;21.06;56.69
21109;BME280;10712;52.944;9.098;2024-03-02T12:18:05;100282.47;;;21.13;56.59
21109;BME280;10712;52.944;9.098;2024-03-02T12:20:33;100285.16;;;21.13;56.75
21109;BME280;10712;52.944;9.098;2024-03-02T12:23:02;100276.72;;;21.16;55.86
21109;BME280;10712;52.944;9.098;2024-03-02T12:25:29;100272.31;;;21.15;56.84
21109;BME280;10712;52.944;9.098;2024-03-02T12:27:58;100274.69;;;21.18;57.53
21109;BME280;10712;52.944;9.098;2024-03-02T12:30:29;100278.09;;;21.29;56.43
21109;BME280;10712;52.944;9.098;2024-03-02T12:32:58;100274.38;;;21.30;56.90
21109;BME280;10712;52.944;9.098;2024-03-02T12:35:25;100270.63;;;21.39;57.24
21109;BME280;10712;52.944;9.098;2024-03-02T12:37:53;100259.94;;;21.45;56.71
21109;BME280;10712;52.944;9.098;2024-03-02T12:40:21;100263.19;;;21.57;55.98
21109;BME280;10712;52.944;9.098;2024-03-02T12:42:49;100258.41;;;21.59;55.62
21109;BME280;10712;52.944;9.098;2024-03-02T12:45:16;100253.84;;;21.59;56.07
21109;BME280;10712;52.944;9.098;2024-03-02T12:47:49;100257.22;;;21.61;56.54
21109;BME280;10712;52.944;9.098;2024-03-02T12:50:16;100254.00;;;21.66;57.15
21109;BME280;10712;52.944;9.098;2024-03-02T12:52:42;100250.94;;;21.77;56.42
21109;BME280;10712;52.944;9.098;2024-03-02T12:55:08;100259.38;;;21.82;56.08
21109;BME280;10712;52.944;9.098;2024-03-02T12:57:34;100256.13;;;21.87;55.48